메인 페이지
METAR-TAF:

METAR-TAF

공항 :

Westfield / 스프링필드, 매사추세츠, 미국

위도: 42-09-35N, 경도: 072-42-46W, 고도: 82m

현재 날씨관측

예보는 20분 전, 23:53시(UTC)에 발표되었습니다.
남남서13kt
온도 7°C
습도 57%
기압 1003 hPa
시정: 16.1km
고도 5500ft 상공 흐림

METAR: KBAF 012353Z 21013KT 10SM OVC055 07/M01 A2962 RMK AO2 PK WND 23030/2305 SLP031 60001 T00671006 10139 20067 53040

시각: 19:13 (00:13 UTC)

예보

예보는 53분 전, 23:20시(UTC)에 발표되었습니다.
예보 대상 시간: 02일 00시부터 02일 24시까지 (UTC)
남남서14kt, 순간 최대 풍속 20kt
시정: 10km
고도 5000ft 상공 구름 많음
02일 0400시부터 (UTC)
남남서8kt
시정: 10km
고도 4500ft 상공 구름 많음
02일 1500시부터 (UTC)
남서9kt
시정: 10km
고도 4000ft 상공 구름 많음
02일 2200시부터 (UTC)
서남서8kt
시정: 10km
고도 3500ft 상공 구름 많음

TAF: KBAF 012320Z 0200/0224 21014G20KT P6SM BKN050 FM020400 21008KT P6SM BKN045 FM021500 22009KT P6SM BKN040 FM022200 24008KT P6SM BKN035

4,000개 이상의 공항 관측 자료 및 예보 (METAR 및 TAF 보고).

지도상에서 검색 가능한 기상관측소가 노란 점과 빨간 점으로 표시되어 있습니다.

기상관측소 명을 보려면 표시 위로 마우스를 이동하세요.

날씨 관측과 예보를 보려면 클릭하세요.

지도 변경 : 확대하려면 엑스 표시가 있는 녹색 버튼, 축소하려면 빼기 표시가 있는 녹색 버튼, 다음 페이지의 지도를 보려면 녹색 화살표를 클릭하세요.


METAR-TAF: